IVAO ES Tour IFR-A 2013 Etapa 23

IVAO ES Tour IFR-A 2013 Etapa 23

Almería ( LEAM ) – Girona ( LEGE )

Datos generales del vuelo
 Fecha 13-12-2013  Avión  B737-800 winglets
 Ruta DOSEK UN860 VLC UM985 EBROX LATRO H110 MAMUK  Nivel de vuelo FL340
 Origen LEAM  Destino LEGE
 Velocidad M0.790  Distancia 432Nm
 Distancia real 385Nm ETE 01:10
 ETA 08:35Z  FOB 02:35
 Hora salida 08:40Z Hora llegada 10:00Z
 Pax 145 TOW 65772Kg
 MTOW  78471Kg Fuel 6814Kg
 Fuel utilizado 3755Kg ZFW 58961Kg
Peso carga 7047Kg Peso pasaje 10501Kg
V1 127Knots Vr 136Knots
 V2 146Knots  Vref 145Knots
 Velocidad vertical toma
288,46 ft/m  

 

Datos LEAM
Metar: LEAM 121400Z 08012KT 060V120 9999 FEW030 19/08 Q1026
Pista Activa: 07
Salida: DOSEK2B

Datos LEGE
Metar: LEGE 121400Z 20010KT 170V240 9999 FEW015 15/07 Q1027
Pista Activa: 20
Llegada: MAMUK1L
App: ILS Z 20

IVAO ES Tour IFR-A 2013 Etapa 22

IVAO ES Tour IFR-A 2013 Etapa 22

Santander ( LEXJ ) – Almería ( LEAM )

Datos generales del vuelo
 Fecha 11-12-2013  Avión  B737-800 winglets
 Ruta BLV UN867 DGO UN725 VASUM UN857 BAN UN10 CJN UM143 RISPO  Nivel de vuelo FL350
 Origen LEXJ  Destino LEAM
 Velocidad M0.790  Distancia 550Nm
 Distancia real 400Nm ETE 01:15
 ETA 18:50Z  FOB 02:35
 Hora salida 17:30Z Hora llegada 18:55Z
 Pax 145 TOW 68470Kg
 MTOW  78471Kg Fuel 7832Kg
 Fuel utilizado 4105Kg ZFW 60637Kg
Peso carga 7832Kg Peso pasaje 11358Kg
V1 132Knots Vr 142Knots
 V2 151Knots  Vref 148Knots
 Velocidad vertical toma
128,5 ft/m  

 

Datos LEXJ
Metar: LEXJ 111700Z 21012G24KT 170V250 CAVOK 17/M05 Q1023
Pista Activa: 29
Salida: BLV3R

Datos LEAM

Metar: LEAM 111830Z 04010KT 9999 FEW030 15/08 Q1030
Pista Activa: 25
Llegada: RISP1C
App: ILS 25 transición NIDON